sensor_id;sensor_type;location;lat;lon;timestamp;P1;durP1;ratioP1;P2;durP2;ratioP2
4214;SDS011;2121;48.062;7.850;2022-07-23T00:01:36;8.27;;;7.37;;
4214;SDS011;2121;48.062;7.850;2022-07-23T00:04:02;6.43;;;5.93;;
4214;SDS011;2121;48.062;7.850;2022-07-23T00:06:28;8.53;;;7.60;;
4214;SDS011;2121;48.062;7.850;2022-07-23T00:08:54;9.33;;;8.23;;
4214;SDS011;2121;48.062;7.850;2022-07-23T00:11:20;9.80;;;7.63;;
4214;SDS011;2121;48.062;7.850;2022-07-23T00:13:47;7.57;;;6.87;;
4214;SDS011;2121;48.062;7.850;2022-07-23T00:16:13;7.80;;;6.80;;
4214;SDS011;2121;48.062;7.850;2022-07-23T00:18:39;6.97;;;6.27;;
4214;SDS011;2121;48.062;7.850;2022-07-23T00:21:05;12.00;;;7.33;;
4214;SDS011;2121;48.062;7.850;2022-07-23T00:23:32;8.13;;;7.13;;
4214;SDS011;2121;48.062;7.850;2022-07-23T00:25:57;7.40;;;6.80;;
4214;SDS011;2121;48.062;7.850;2022-07-23T00:28:23;8.33;;;7.43;;
4214;SDS011;2121;48.062;7.850;2022-07-23T00:30:49;7.13;;;6.43;;
4214;SDS011;2121;48.062;7.850;2022-07-23T00:33:15;8.37;;;7.57;;
4214;SDS011;2121;48.062;7.850;2022-07-23T00:35:41;7.90;;;6.47;;
4214;SDS011;2121;48.062;7.850;2022-07-23T00:38:09;6.97;;;6.27;;
4214;SDS011;2121;48.062;7.850;2022-07-23T00:40:36;6.43;;;5.83;;
4214;SDS011;2121;48.062;7.850;2022-07-23T00:43:04;6.43;;;5.83;;
4214;SDS011;2121;48.062;7.850;2022-07-23T00:45:29;6.60;;;5.90;;
4214;SDS011;2121;48.062;7.850;2022-07-23T00:47:55;6.40;;;5.90;;
4214;SDS011;2121;48.062;7.850;2022-07-23T00:50:22;8.03;;;5.87;;
4214;SDS011;2121;48.062;7.850;2022-07-23T00:52:48;6.73;;;6.13;;
4214;SDS011;2121;48.062;7.850;2022-07-23T00:55:14;8.27;;;5.80;;
4214;SDS011;2121;48.062;7.850;2022-07-23T00:57:40;6.00;;;5.40;;
4214;SDS011;2121;48.062;7.850;2022-07-23T01:00:08;7.50;;;6.67;;
4214;SDS011;2121;48.062;7.850;2022-07-23T01:02:38;7.43;;;6.53;;
4214;SDS011;2121;48.062;7.850;2022-07-23T01:05:04;6.97;;;6.27;;
4214;SDS011;2121;48.062;7.850;2022-07-23T01:07:31;8.30;;;6.67;;
4214;SDS011;2121;48.062;7.850;2022-07-23T01:09:56;9.90;;;6.73;;
4214;SDS011;2121;48.062;7.850;2022-07-23T01:12:23;13.40;;;7.63;;
4214;SDS011;2121;48.062;7.850;2022-07-23T01:14:56;7.83;;;7.07;;
4214;SDS011;2121;48.062;7.850;2022-07-23T01:17:23;10.53;;;7.70;;
4214;SDS011;2121;48.062;7.850;2022-07-23T01:19:49;8.67;;;7.70;;
4214;SDS011;2121;48.062;7.850;2022-07-23T01:22:16;10.13;;;7.67;;
4214;SDS011;2121;48.062;7.850;2022-07-23T01:24:44;9.43;;;8.40;;
4214;SDS011;2121;48.062;7.850;2022-07-23T01:27:10;11.73;;;7.77;;
4214;SDS011;2121;48.062;7.850;2022-07-23T01:29:37;10.40;;;8.53;;
4214;SDS011;2121;48.062;7.850;2022-07-23T01:32:04;11.97;;;8.13;;
4214;SDS011;2121;48.062;7.850;2022-07-23T01:34:30;12.47;;;8.90;;
4214;SDS011;2121;48.062;7.850;2022-07-23T01:36:57;9.60;;;8.10;;
4214;SDS011;2121;48.062;7.850;2022-07-23T01:39:22;11.77;;;8.40;;
4214;SDS011;2121;48.062;7.850;2022-07-23T01:41:48;8.60;;;7.80;;
4214;SDS011;2121;48.062;7.850;2022-07-23T01:44:14;12.43;;;8.27;;
4214;SDS011;2121;48.062;7.850;2022-07-23T01:46:40;9.20;;;7.70;;
4214;SDS011;2121;48.062;7.850;2022-07-23T01:49:07;9.57;;;8.57;;
4214;SDS011;2121;48.062;7.850;2022-07-23T01:51:33;8.97;;;8.07;;
4214;SDS011;2121;48.062;7.850;2022-07-23T01:53:59;10.47;;;9.23;;
4214;SDS011;2121;48.062;7.850;2022-07-23T01:56:24;10.20;;;8.47;;
4214;SDS011;2121;48.062;7.850;2022-07-23T01:58:50;9.67;;;8.70;;
4214;SDS011;2121;48.062;7.850;2022-07-23T02:01:16;10.40;;;7.47;;
4214;SDS011;2121;48.062;7.850;2022-07-23T02:03:42;18.23;;;9.93;;
4214;SDS011;2121;48.062;7.850;2022-07-23T02:06:07;9.27;;;7.77;;
4214;SDS011;2121;48.062;7.850;2022-07-23T02:08:33;16.20;;;9.30;;
4214;SDS011;2121;48.062;7.850;2022-07-23T02:10:59;10.00;;;8.70;;
4214;SDS011;2121;48.062;7.850;2022-07-23T02:13:25;10.47;;;8.27;;
4214;SDS011;2121;48.062;7.850;2022-07-23T02:15:50;8.13;;;6.80;;
4214;SDS011;2121;48.062;7.850;2022-07-23T02:18:16;9.40;;;8.07;;
4214;SDS011;2121;48.062;7.850;2022-07-23T02:20:42;8.87;;;8.07;;
4214;SDS011;2121;48.062;7.850;2022-07-23T02:23:09;8.80;;;7.83;;
4214;SDS011;2121;48.062;7.850;2022-07-23T02:25:35;8.20;;;7.50;;
4214;SDS011;2121;48.062;7.850;2022-07-23T02:28:01;10.47;;;8.80;;
4214;SDS011;2121;48.062;7.850;2022-07-23T02:30:27;10.77;;;8.73;;
4214;SDS011;2121;48.062;7.850;2022-07-23T02:32:53;9.33;;;8.23;;
4214;SDS011;2121;48.062;7.850;2022-07-23T02:35:19;9.63;;;8.73;;
4214;SDS011;2121;48.062;7.850;2022-07-23T02:37:45;8.83;;;7.90;;
4214;SDS011;2121;48.062;7.850;2022-07-23T02:40:10;9.13;;;8.10;;
4214;SDS011;2121;48.062;7.850;2022-07-23T02:42:36;9.30;;;8.37;;
4214;SDS011;2121;48.062;7.850;2022-07-23T02:45:02;9.03;;;8.13;;
4214;SDS011;2121;48.062;7.850;2022-07-23T02:47:29;10.20;;;8.87;;
4214;SDS011;2121;48.062;7.850;2022-07-23T02:49:56;12.43;;;8.03;;
4214;SDS011;2121;48.062;7.850;2022-07-23T02:52:22;9.87;;;8.90;;
4214;SDS011;2121;48.062;7.850;2022-07-23T02:54:48;13.80;;;9.60;;
4214;SDS011;2121;48.062;7.850;2022-07-23T02:57:14;9.73;;;8.73;;
4214;SDS011;2121;48.062;7.850;2022-07-23T02:59:39;11.20;;;9.53;;
4214;SDS011;2121;48.062;7.850;2022-07-23T03:02:05;10.93;;;9.73;;
4214;SDS011;2121;48.062;7.850;2022-07-23T03:04:31;9.90;;;8.50;;
4214;SDS011;2121;48.062;7.850;2022-07-23T03:06:57;12.27;;;10.67;;
4214;SDS011;2121;48.062;7.850;2022-07-23T03:09:22;10.77;;;9.40;;
4214;SDS011;2121;48.062;7.850;2022-07-23T03:11:48;11.57;;;9.40;;
4214;SDS011;2121;48.062;7.850;2022-07-23T03:14:14;11.73;;;9.70;;
4214;SDS011;2121;48.062;7.850;2022-07-23T03:16:41;9.80;;;8.80;;
4214;SDS011;2121;48.062;7.850;2022-07-23T03:19:07;11.10;;;10.10;;
4214;SDS011;2121;48.062;7.850;2022-07-23T03:21:33;11.43;;;9.53;;
4214;SDS011;2121;48.062;7.850;2022-07-23T03:23:59;11.13;;;9.93;;
4214;SDS011;2121;48.062;7.850;2022-07-23T03:26:25;10.80;;;9.00;;
4214;SDS011;2121;48.062;7.850;2022-07-23T03:28:51;10.60;;;9.57;;
4214;SDS011;2121;48.062;7.850;2022-07-23T03:31:17;10.90;;;9.47;;
4214;SDS011;2121;48.062;7.850;2022-07-23T03:33:43;10.97;;;9.37;;
4214;SDS011;2121;48.062;7.850;2022-07-23T03:36:09;12.60;;;9.30;;
4214;SDS011;2121;48.062;7.850;2022-07-23T03:38:34;13.23;;;11.23;;
4214;SDS011;2121;48.062;7.850;2022-07-23T03:41:00;11.57;;;9.23;;
4214;SDS011;2121;48.062;7.850;2022-07-23T03:43:26;11.23;;;10.07;;
4214;SDS011;2121;48.062;7.850;2022-07-23T03:45:52;10.63;;;9.57;;
4214;SDS011;2121;48.062;7.850;2022-07-23T03:48:17;10.73;;;9.70;;
4214;SDS011;2121;48.062;7.850;2022-07-23T03:50:43;9.90;;;8.90;;
4214;SDS011;2121;48.062;7.850;2022-07-23T03:53:09;11.37;;;9.80;;
4214;SDS011;2121;48.062;7.850;2022-07-23T03:55:35;12.17;;;10.37;;
4214;SDS011;2121;48.062;7.850;2022-07-23T03:58:01;12.43;;;10.20;;
4214;SDS011;2121;48.062;7.850;2022-07-23T04:00:27;13.63;;;10.77;;
4214;SDS011;2121;48.062;7.850;2022-07-23T04:02:53;10.93;;;9.30;;
4214;SDS011;2121;48.062;7.850;2022-07-23T04:05:18;10.60;;;9.60;;
4214;SDS011;2121;48.062;7.850;2022-07-23T04:07:44;10.83;;;9.73;;
4214;SDS011;2121;48.062;7.850;2022-07-23T04:10:10;12.53;;;10.00;;
4214;SDS011;2121;48.062;7.850;2022-07-23T04:12:36;11.70;;;10.53;;
4214;SDS011;2121;48.062;7.850;2022-07-23T04:15:02;11.23;;;9.10;;
4214;SDS011;2121;48.062;7.850;2022-07-23T04:17:28;10.17;;;9.17;;
4214;SDS011;2121;48.062;7.850;2022-07-23T04:19:54;11.50;;;9.60;;
4214;SDS011;2121;48.062;7.850;2022-07-23T04:22:19;11.47;;;10.27;;
4214;SDS011;2121;48.062;7.850;2022-07-23T04:24:45;12.17;;;10.47;;
4214;SDS011;2121;48.062;7.850;2022-07-23T04:27:11;11.87;;;10.70;;
4214;SDS011;2121;48.062;7.850;2022-07-23T04:29:37;11.77;;;9.80;;
4214;SDS011;2121;48.062;7.850;2022-07-23T04:32:02;10.80;;;9.80;;
4214;SDS011;2121;48.062;7.850;2022-07-23T04:34:29;11.83;;;10.03;;
4214;SDS011;2121;48.062;7.850;2022-07-23T04:36:54;11.23;;;10.13;;
4214;SDS011;2121;48.062;7.850;2022-07-23T04:39:20;12.23;;;10.97;;
4214;SDS011;2121;48.062;7.850;2022-07-23T04:41:46;12.27;;;10.43;;
4214;SDS011;2121;48.062;7.850;2022-07-23T04:44:12;12.10;;;10.13;;
4214;SDS011;2121;48.062;7.850;2022-07-23T04:46:38;13.90;;;10.10;;
4214;SDS011;2121;48.062;7.850;2022-07-23T04:49:04;11.83;;;10.63;;
4214;SDS011;2121;48.062;7.850;2022-07-23T04:51:30;10.70;;;9.57;;
4214;SDS011;2121;48.062;7.850;2022-07-23T04:53:56;11.40;;;10.20;;
4214;SDS011;2121;48.062;7.850;2022-07-23T04:56:22;10.80;;;8.63;;
4214;SDS011;2121;48.062;7.850;2022-07-23T04:58:48;10.60;;;9.13;;
4214;SDS011;2121;48.062;7.850;2022-07-23T05:01:13;12.70;;;9.60;;
4214;SDS011;2121;48.062;7.850;2022-07-23T05:03:39;10.97;;;9.90;;
4214;SDS011;2121;48.062;7.850;2022-07-23T05:06:05;9.87;;;8.87;;
4214;SDS011;2121;48.062;7.850;2022-07-23T05:08:31;9.80;;;8.53;;
4214;SDS011;2121;48.062;7.850;2022-07-23T05:10:57;11.30;;;10.20;;
4214;SDS011;2121;48.062;7.850;2022-07-23T05:13:22;12.63;;;10.47;;
4214;SDS011;2121;48.062;7.850;2022-07-23T05:15:48;10.83;;;9.73;;
4214;SDS011;2121;48.062;7.850;2022-07-23T05:18:14;12.27;;;10.80;;
4214;SDS011;2121;48.062;7.850;2022-07-23T05:20:40;10.40;;;9.27;;
4214;SDS011;2121;48.062;7.850;2022-07-23T05:23:06;10.93;;;9.17;;
4214;SDS011;2121;48.062;7.850;2022-07-23T05:25:32;10.23;;;9.17;;
4214;SDS011;2121;48.062;7.850;2022-07-23T05:27:58;11.40;;;10.30;;
4214;SDS011;2121;48.062;7.850;2022-07-23T05:30:24;10.77;;;9.77;;
4214;SDS011;2121;48.062;7.850;2022-07-23T05:32:49;17.00;;;10.23;;
4214;SDS011;2121;48.062;7.850;2022-07-23T05:35:15;10.97;;;9.77;;
4214;SDS011;2121;48.062;7.850;2022-07-23T05:37:41;10.87;;;9.83;;
4214;SDS011;2121;48.062;7.850;2022-07-23T05:40:08;13.83;;;10.00;;
4214;SDS011;2121;48.062;7.850;2022-07-23T05:42:35;9.10;;;8.30;;
4214;SDS011;2121;48.062;7.850;2022-07-23T05:45:03;11.27;;;9.47;;
4214;SDS011;2121;48.062;7.850;2022-07-23T05:47:43;10.50;;;9.50;;
4214;SDS011;2121;48.062;7.850;2022-07-23T05:50:12;9.53;;;8.40;;
4214;SDS011;2121;48.062;7.850;2022-07-23T05:52:39;12.20;;;9.70;;
4214;SDS011;2121;48.062;7.850;2022-07-23T05:55:05;10.23;;;9.10;;
4214;SDS011;2121;48.062;7.850;2022-07-23T05:57:32;11.00;;;8.80;;
4214;SDS011;2121;48.062;7.850;2022-07-23T05:59:58;9.80;;;8.70;;
4214;SDS011;2121;48.062;7.850;2022-07-23T06:02:23;11.13;;;9.90;;
4214;SDS011;2121;48.062;7.850;2022-07-23T06:04:49;10.23;;;9.33;;
4214;SDS011;2121;48.062;7.850;2022-07-23T06:07:15;11.00;;;9.67;;
4214;SDS011;2121;48.062;7.850;2022-07-23T06:09:40;11.30;;;10.20;;
4214;SDS011;2121;48.062;7.850;2022-07-23T06:12:06;11.37;;;9.70;;
4214;SDS011;2121;48.062;7.850;2022-07-23T06:14:33;12.07;;;10.47;;
4214;SDS011;2121;48.062;7.850;2022-07-23T06:16:58;12.03;;;10.60;;
4214;SDS011;2121;48.062;7.850;2022-07-23T06:19:24;12.73;;;11.53;;
4214;SDS011;2121;48.062;7.850;2022-07-23T06:21:50;13.77;;;11.53;;
4214;SDS011;2121;48.062;7.850;2022-07-23T06:24:16;14.40;;;10.20;;
4214;SDS011;2121;48.062;7.850;2022-07-23T06:26:42;13.50;;;11.50;;
4214;SDS011;2121;48.062;7.850;2022-07-23T06:29:08;17.67;;;10.27;;
4214;SDS011;2121;48.062;7.850;2022-07-23T06:31:34;15.90;;;11.20;;
4214;SDS011;2121;48.062;7.850;2022-07-23T06:34:00;12.37;;;11.17;;
4214;SDS011;2121;48.062;7.850;2022-07-23T06:36:26;12.60;;;11.30;;
4214;SDS011;2121;48.062;7.850;2022-07-23T06:38:51;13.93;;;11.33;;
4214;SDS011;2121;48.062;7.850;2022-07-23T06:41:17;11.10;;;10.00;;
4214;SDS011;2121;48.062;7.850;2022-07-23T06:43:43;12.63;;;9.37;;
4214;SDS011;2121;48.062;7.850;2022-07-23T06:46:09;13.00;;;11.40;;
4214;SDS011;2121;48.062;7.850;2022-07-23T06:48:34;15.70;;;10.20;;
4214;SDS011;2121;48.062;7.850;2022-07-23T06:51:01;11.13;;;9.07;;
4214;SDS011;2121;48.062;7.850;2022-07-23T06:53:27;10.50;;;9.43;;
4214;SDS011;2121;48.062;7.850;2022-07-23T06:55:53;10.30;;;9.30;;
4214;SDS011;2121;48.062;7.850;2022-07-23T06:58:19;10.63;;;7.97;;
4214;SDS011;2121;48.062;7.850;2022-07-23T07:00:45;11.17;;;8.93;;
4214;SDS011;2121;48.062;7.850;2022-07-23T07:03:11;13.17;;;9.63;;
4214;SDS011;2121;48.062;7.850;2022-07-23T07:05:37;28.80;;;10.03;;
4214;SDS011;2121;48.062;7.850;2022-07-23T07:08:06;12.47;;;9.40;;
4214;SDS011;2121;48.062;7.850;2022-07-23T07:10:32;11.70;;;9.43;;
4214;SDS011;2121;48.062;7.850;2022-07-23T07:12:57;10.07;;;9.03;;
4214;SDS011;2121;48.062;7.850;2022-07-23T07:15:23;11.00;;;10.00;;
4214;SDS011;2121;48.062;7.850;2022-07-23T07:17:49;11.73;;;10.53;;
4214;SDS011;2121;48.062;7.850;2022-07-23T07:20:15;9.77;;;8.37;;
4214;SDS011;2121;48.062;7.850;2022-07-23T07:22:41;9.83;;;8.93;;
4214;SDS011;2121;48.062;7.850;2022-07-23T07:25:07;10.93;;;9.90;;
4214;SDS011;2121;48.062;7.850;2022-07-23T07:27:33;10.03;;;9.00;;
4214;SDS011;2121;48.062;7.850;2022-07-23T07:29:59;14.77;;;9.00;;
4214;SDS011;2121;48.062;7.850;2022-07-23T07:32:25;10.47;;;8.50;;
4214;SDS011;2121;48.062;7.850;2022-07-23T07:34:50;10.87;;;9.07;;
4214;SDS011;2121;48.062;7.850;2022-07-23T07:37:16;9.30;;;8.33;;
4214;SDS011;2121;48.062;7.850;2022-07-23T07:39:42;9.43;;;8.60;;
4214;SDS011;2121;48.062;7.850;2022-07-23T07:42:08;10.00;;;8.67;;
4214;SDS011;2121;48.062;7.850;2022-07-23T07:44:33;9.03;;;8.23;;
4214;SDS011;2121;48.062;7.850;2022-07-23T07:46:59;11.17;;;8.90;;
4214;SDS011;2121;48.062;7.850;2022-07-23T07:49:25;10.17;;;9.17;;
4214;SDS011;2121;48.062;7.850;2022-07-23T07:51:50;10.03;;;9.03;;
4214;SDS011;2121;48.062;7.850;2022-07-23T07:54:16;10.63;;;9.10;;
4214;SDS011;2121;48.062;7.850;2022-07-23T07:56:42;10.23;;;9.20;;
4214;SDS011;2121;48.062;7.850;2022-07-23T07:59:08;11.67;;;8.83;;
4214;SDS011;2121;48.062;7.850;2022-07-23T08:01:33;10.10;;;9.03;;
4214;SDS011;2121;48.062;7.850;2022-07-23T08:03:59;10.57;;;8.50;;
4214;SDS011;2121;48.062;7.850;2022-07-23T08:06:25;13.77;;;8.80;;
4214;SDS011;2121;48.062;7.850;2022-07-23T08:08:51;9.23;;;8.30;;
4214;SDS011;2121;48.062;7.850;2022-07-23T08:11:16;9.77;;;8.77;;
4214;SDS011;2121;48.062;7.850;2022-07-23T08:13:42;9.77;;;7.43;;
4214;SDS011;2121;48.062;7.850;2022-07-23T08:16:09;10.20;;;8.40;;
4214;SDS011;2121;48.062;7.850;2022-07-23T08:18:36;7.77;;;7.10;;
4214;SDS011;2121;48.062;7.850;2022-07-23T08:21:02;11.87;;;6.60;;
4214;SDS011;2121;48.062;7.850;2022-07-23T08:23:29;7.83;;;7.03;;
4214;SDS011;2121;48.062;7.850;2022-07-23T08:25:55;11.20;;;7.87;;
4214;SDS011;2121;48.062;7.850;2022-07-23T08:28:21;8.03;;;7.33;;
4214;SDS011;2121;48.062;7.850;2022-07-23T08:30:47;10.03;;;7.57;;
4214;SDS011;2121;48.062;7.850;2022-07-23T08:33:14;8.40;;;7.70;;
4214;SDS011;2121;48.062;7.850;2022-07-23T08:35:43;8.90;;;7.17;;
4214;SDS011;2121;48.062;7.850;2022-07-23T08:38:16;9.07;;;7.28;;
4214;SDS011;2121;48.062;7.850;2022-07-23T08:40:47;6.95;;;6.32;;
4214;SDS011;2121;48.062;7.850;2022-07-23T08:43:17;7.70;;;6.95;;
4214;SDS011;2121;48.062;7.850;2022-07-23T08:45:50;8.27;;;7.43;;
4214;SDS011;2121;48.062;7.850;2022-07-23T08:48:22;9.27;;;8.02;;
4214;SDS011;2121;48.062;7.850;2022-07-23T08:50:53;8.32;;;7.50;;
4214;SDS011;2121;48.062;7.850;2022-07-23T08:53:23;9.55;;;7.07;;
4214;SDS011;2121;48.062;7.850;2022-07-23T08:55:51;9.38;;;7.20;;
4214;SDS011;2121;48.062;7.850;2022-07-23T08:58:20;9.48;;;7.05;;
4214;SDS011;2121;48.062;7.850;2022-07-23T09:00:47;7.43;;;6.82;;
4214;SDS011;2121;48.062;7.850;2022-07-23T09:03:16;7.63;;;7.00;;
4214;SDS011;2121;48.062;7.850;2022-07-23T09:05:44;6.85;;;6.00;;
4214;SDS011;2121;48.062;7.850;2022-07-23T09:10:51;7.60;;;6.95;;
4214;SDS011;2121;48.062;7.850;2022-07-23T09:15:52;11.52;;;9.10;;
4214;SDS011;2121;48.062;7.850;2022-07-23T09:18:27;6.75;;;6.25;;
4214;SDS011;2121;48.062;7.850;2022-07-23T09:21:17;11.50;;;6.97;;
4214;SDS011;2121;48.062;7.850;2022-07-23T09:29:08;6.85;;;6.35;;
4214;SDS011;2121;48.062;7.850;2022-07-23T09:34:23;8.45;;;7.57;;
4214;SDS011;2121;48.062;7.850;2022-07-23T09:37:08;11.88;;;6.97;;
4214;SDS011;2121;48.062;7.850;2022-07-23T09:39:43;8.23;;;6.32;;
4214;SDS011;2121;48.062;7.850;2022-07-23T09:44:43;7.85;;;7.05;;
4214;SDS011;2121;48.062;7.850;2022-07-23T09:47:11;8.88;;;7.25;;
4214;SDS011;2121;48.062;7.850;2022-07-23T09:49:37;9.45;;;7.10;;
4214;SDS011;2121;48.062;7.850;2022-07-23T09:52:03;8.23;;;7.45;;
4214;SDS011;2121;48.062;7.850;2022-07-23T09:54:30;7.90;;;7.10;;
4214;SDS011;2121;48.062;7.850;2022-07-23T09:56:59;9.07;;;7.25;;
4214;SDS011;2121;48.062;7.850;2022-07-23T09:59:31;7.72;;;6.88;;
4214;SDS011;2121;48.062;7.850;2022-07-23T10:02:01;7.43;;;6.68;;
4214;SDS011;2121;48.062;7.850;2022-07-23T10:04:29;8.00;;;7.20;;
4214;SDS011;2121;48.062;7.850;2022-07-23T10:06:59;7.88;;;7.15;;
4214;SDS011;2121;48.062;7.850;2022-07-23T10:09:31;7.10;;;6.38;;
4214;SDS011;2121;48.062;7.850;2022-07-23T10:12:03;8.02;;;6.78;;
4214;SDS011;2121;48.062;7.850;2022-07-23T10:14:39;7.00;;;6.13;;
4214;SDS011;2121;48.062;7.850;2022-07-23T10:17:07;6.82;;;6.07;;
4214;SDS011;2121;48.062;7.850;2022-07-23T10:19:34;7.80;;;6.93;;
4214;SDS011;2121;48.062;7.850;2022-07-23T10:22:06;7.70;;;6.35;;
4214;SDS011;2121;48.062;7.850;2022-07-23T10:39:09;7.78;;;6.70;;
4214;SDS011;2121;48.062;7.850;2022-07-23T10:41:39;5.75;;;5.25;;
4214;SDS011;2121;48.062;7.850;2022-07-23T10:44:11;6.75;;;6.15;;
4214;SDS011;2121;48.062;7.850;2022-07-23T10:46:58;6.25;;;5.75;;
4214;SDS011;2121;48.062;7.850;2022-07-23T10:49:29;6.50;;;6.00;;
4214;SDS011;2121;48.062;7.850;2022-07-23T10:54:44;7.97;;;6.40;;
4214;SDS011;2121;48.062;7.850;2022-07-23T10:57:46;7.35;;;6.22;;
4214;SDS011;2121;48.062;7.850;2022-07-23T11:00:15;7.07;;;6.47;;
4214;SDS011;2121;48.062;7.850;2022-07-23T11:02:46;6.32;;;5.75;;
4214;SDS011;2121;48.062;7.850;2022-07-23T11:05:16;6.55;;;5.90;;
4214;SDS011;2121;48.062;7.850;2022-07-23T11:32:03;9.20;;;6.32;;
4214;SDS011;2121;48.062;7.850;2022-07-23T11:34:32;6.88;;;6.20;;
4214;SDS011;2121;48.062;7.850;2022-07-23T11:37:13;7.78;;;6.35;;
4214;SDS011;2121;48.062;7.850;2022-07-23T11:39:56;6.78;;;6.18;;
4214;SDS011;2121;48.062;7.850;2022-07-23T11:42:23;6.93;;;6.00;;
4214;SDS011;2121;48.062;7.850;2022-07-23T11:44:50;7.95;;;5.65;;
4214;SDS011;2121;48.062;7.850;2022-07-23T11:47:20;6.22;;;5.82;;
4214;SDS011;2121;48.062;7.850;2022-07-23T11:52:27;7.53;;;6.82;;
4214;SDS011;2121;48.062;7.850;2022-07-23T11:57:29;6.28;;;5.68;;
4214;SDS011;2121;48.062;7.850;2022-07-23T12:00:01;10.27;;;6.40;;
4214;SDS011;2121;48.062;7.850;2022-07-23T12:02:36;7.50;;;6.78;;
4214;SDS011;2121;48.062;7.850;2022-07-23T12:05:03;6.85;;;6.35;;
4214;SDS011;2121;48.062;7.850;2022-07-23T12:10:12;8.90;;;6.85;;
4214;SDS011;2121;48.062;7.850;2022-07-23T12:12:53;9.18;;;6.82;;
4214;SDS011;2121;48.062;7.850;2022-07-23T12:15:29;7.70;;;7.07;;
4214;SDS011;2121;48.062;7.850;2022-07-23T12:18:03;7.20;;;6.55;;
4214;SDS011;2121;48.062;7.850;2022-07-23T12:20:31;8.55;;;6.65;;
4214;SDS011;2121;48.062;7.850;2022-07-23T12:23:03;11.60;;;7.15;;
4214;SDS011;2121;48.062;7.850;2022-07-23T12:25:33;6.38;;;5.78;;
4214;SDS011;2121;48.062;7.850;2022-07-23T12:30:39;6.50;;;5.90;;
4214;SDS011;2121;48.062;7.850;2022-07-23T12:33:29;5.88;;;5.35;;
4214;SDS011;2121;48.062;7.850;2022-07-23T12:35:58;5.72;;;4.82;;
4214;SDS011;2121;48.062;7.850;2022-07-23T12:38:27;5.38;;;4.88;;
4214;SDS011;2121;48.062;7.850;2022-07-23T12:41:07;5.20;;;4.90;;
4214;SDS011;2121;48.062;7.850;2022-07-23T12:43:38;5.22;;;4.82;;
4214;SDS011;2121;48.062;7.850;2022-07-23T12:46:07;7.05;;;6.25;;
4214;SDS011;2121;48.062;7.850;2022-07-23T12:51:26;6.47;;;5.97;;
4214;SDS011;2121;48.062;7.850;2022-07-23T12:53:56;6.18;;;5.72;;
4214;SDS011;2121;48.062;7.850;2022-07-23T12:56:33;6.60;;;5.95;;
4214;SDS011;2121;48.062;7.850;2022-07-23T13:01:41;5.45;;;5.05;;
4214;SDS011;2121;48.062;7.850;2022-07-23T13:04:20;4.82;;;4.50;;
4214;SDS011;2121;48.062;7.850;2022-07-23T13:06:48;5.38;;;4.95;;
4214;SDS011;2121;48.062;7.850;2022-07-23T13:09:18;5.32;;;4.93;;
4214;SDS011;2121;48.062;7.850;2022-07-23T13:11:49;5.88;;;5.47;;
4214;SDS011;2121;48.062;7.850;2022-07-23T13:14:18;7.85;;;5.55;;
4214;SDS011;2121;48.062;7.850;2022-07-23T13:16:45;6.28;;;5.78;;
4214;SDS011;2121;48.062;7.850;2022-07-23T13:19:12;5.65;;;5.35;;
4214;SDS011;2121;48.062;7.850;2022-07-23T13:21:38;5.30;;;5.00;;
4214;SDS011;2121;48.062;7.850;2022-07-23T13:24:06;7.10;;;5.28;;
4214;SDS011;2121;48.062;7.850;2022-07-23T13:26:35;6.63;;;6.13;;
4214;SDS011;2121;48.062;7.850;2022-07-23T13:29:02;5.72;;;5.20;;
4214;SDS011;2121;48.062;7.850;2022-07-23T13:31:29;6.80;;;6.07;;
4214;SDS011;2121;48.062;7.850;2022-07-23T13:33:55;7.20;;;5.68;;
4214;SDS011;2121;48.062;7.850;2022-07-23T13:36:21;6.75;;;6.10;;
4214;SDS011;2121;48.062;7.850;2022-07-23T13:38:47;6.00;;;5.40;;
4214;SDS011;2121;48.062;7.850;2022-07-23T13:41:12;6.55;;;5.78;;
4214;SDS011;2121;48.062;7.850;2022-07-23T13:43:41;12.57;;;6.45;;
4214;SDS011;2121;48.062;7.850;2022-07-23T13:46:07;6.53;;;6.03;;
4214;SDS011;2121;48.062;7.850;2022-07-23T13:48:33;6.35;;;5.70;;
4214;SDS011;2121;48.062;7.850;2022-07-23T13:50:59;8.00;;;7.20;;
4214;SDS011;2121;48.062;7.850;2022-07-23T13:53:24;7.75;;;6.05;;
4214;SDS011;2121;48.062;7.850;2022-07-23T13:55:51;5.43;;;5.05;;
4214;SDS011;2121;48.062;7.850;2022-07-23T13:58:18;6.95;;;6.45;;
4214;SDS011;2121;48.062;7.850;2022-07-23T14:00:45;6.70;;;6.13;;
4214;SDS011;2121;48.062;7.850;2022-07-23T14:03:15;7.93;;;7.22;;
4214;SDS011;2121;48.062;7.850;2022-07-23T14:05:42;8.05;;;7.35;;
4214;SDS011;2121;48.062;7.850;2022-07-23T14:08:08;9.00;;;6.18;;
4214;SDS011;2121;48.062;7.850;2022-07-23T14:10:34;7.57;;;6.95;;
4214;SDS011;2121;48.062;7.850;2022-07-23T14:13:00;7.50;;;6.72;;
4214;SDS011;2121;48.062;7.850;2022-07-23T14:15:27;8.57;;;7.70;;
4214;SDS011;2121;48.062;7.850;2022-07-23T14:17:55;11.43;;;7.78;;
4214;SDS011;2121;48.062;7.850;2022-07-23T14:20:21;8.15;;;7.35;;
4214;SDS011;2121;48.062;7.850;2022-07-23T14:22:48;7.70;;;6.47;;
4214;SDS011;2121;48.062;7.850;2022-07-23T14:25:14;7.47;;;6.88;;
4214;SDS011;2121;48.062;7.850;2022-07-23T14:27:41;7.85;;;7.05;;
4214;SDS011;2121;48.062;7.850;2022-07-23T14:30:07;8.32;;;6.90;;
4214;SDS011;2121;48.062;7.850;2022-07-23T14:32:34;7.63;;;6.97;;
4214;SDS011;2121;48.062;7.850;2022-07-23T14:35:01;7.28;;;6.55;;
4214;SDS011;2121;48.062;7.850;2022-07-23T14:37:28;8.45;;;7.75;;
4214;SDS011;2121;48.062;7.850;2022-07-23T14:39:54;8.30;;;7.07;;
4214;SDS011;2121;48.062;7.850;2022-07-23T14:42:20;8.18;;;7.38;;
4214;SDS011;2121;48.062;7.850;2022-07-23T14:44:46;7.78;;;7.13;;
4214;SDS011;2121;48.062;7.850;2022-07-23T14:47:11;7.32;;;6.63;;
4214;SDS011;2121;48.062;7.850;2022-07-23T14:49:37;6.00;;;5.45;;
4214;SDS011;2121;48.062;7.850;2022-07-23T14:52:03;7.32;;;6.63;;
4214;SDS011;2121;48.062;7.850;2022-07-23T14:54:30;7.43;;;6.82;;
4214;SDS011;2121;48.062;7.850;2022-07-23T14:56:57;6.72;;;6.22;;
4214;SDS011;2121;48.062;7.850;2022-07-23T14:59:25;7.10;;;6.50;;
4214;SDS011;2121;48.062;7.850;2022-07-23T15:01:52;7.75;;;6.95;;
4214;SDS011;2121;48.062;7.850;2022-07-23T15:04:19;7.85;;;6.93;;
4214;SDS011;2121;48.062;7.850;2022-07-23T15:06:46;6.60;;;6.00;;
4214;SDS011;2121;48.062;7.850;2022-07-23T15:09:12;8.27;;;7.13;;
4214;SDS011;2121;48.062;7.850;2022-07-23T15:11:39;7.95;;;7.35;;
4214;SDS011;2121;48.062;7.850;2022-07-23T15:14:05;7.53;;;6.90;;
4214;SDS011;2121;48.062;7.850;2022-07-23T15:16:31;8.25;;;7.32;;
4214;SDS011;2121;48.062;7.850;2022-07-23T15:18:58;7.40;;;6.90;;
4214;SDS011;2121;48.062;7.850;2022-07-23T15:21:24;7.25;;;6.70;;
4214;SDS011;2121;48.062;7.850;2022-07-23T15:23:50;12.43;;;6.93;;
4214;SDS011;2121;48.062;7.850;2022-07-23T15:26:17;6.78;;;6.28;;
4214;SDS011;2121;48.062;7.850;2022-07-23T15:28:43;8.00;;;7.05;;
4214;SDS011;2121;48.062;7.850;2022-07-23T15:31:09;9.95;;;6.47;;
4214;SDS011;2121;48.062;7.850;2022-07-23T15:33:35;7.30;;;6.72;;
4214;SDS011;2121;48.062;7.850;2022-07-23T15:36:02;6.63;;;6.03;;
4214;SDS011;2121;48.062;7.850;2022-07-23T15:38:29;6.78;;;5.70;;
4214;SDS011;2121;48.062;7.850;2022-07-23T15:40:56;6.80;;;5.85;;
4214;SDS011;2121;48.062;7.850;2022-07-23T15:43:22;7.35;;;5.38;;
4214;SDS011;2121;48.062;7.850;2022-07-23T15:45:49;5.78;;;5.38;;
4214;SDS011;2121;48.062;7.850;2022-07-23T15:48:16;5.55;;;5.13;;
4214;SDS011;2121;48.062;7.850;2022-07-23T15:50:43;5.65;;;5.25;;
4214;SDS011;2121;48.062;7.850;2022-07-23T15:53:09;5.22;;;4.82;;
4214;SDS011;2121;48.062;7.850;2022-07-23T15:55:35;5.97;;;5.47;;
4214;SDS011;2121;48.062;7.850;2022-07-23T15:58:03;6.45;;;5.93;;
4214;SDS011;2121;48.062;7.850;2022-07-23T16:00:29;5.20;;;4.90;;
4214;SDS011;2121;48.062;7.850;2022-07-23T16:02:55;6.47;;;5.85;;
4214;SDS011;2121;48.062;7.850;2022-07-23T16:05:20;5.57;;;5.18;;
4214;SDS011;2121;48.062;7.850;2022-07-23T16:07:46;5.20;;;4.70;;
4214;SDS011;2121;48.062;7.850;2022-07-23T16:10:12;5.18;;;4.78;;
4214;SDS011;2121;48.062;7.850;2022-07-23T16:12:38;5.80;;;5.07;;
4214;SDS011;2121;48.062;7.850;2022-07-23T16:15:04;5.25;;;4.95;;
4214;SDS011;2121;48.062;7.850;2022-07-23T16:17:30;8.88;;;6.28;;
4214;SDS011;2121;48.062;7.850;2022-07-23T16:19:56;6.75;;;6.18;;
4214;SDS011;2121;48.062;7.850;2022-07-23T16:22:22;7.65;;;6.28;;